Time;durP1;ratioP1;P1;durP2;ratioP2;P2;SDS_P1;SDS_P2;PMS_P1;PMS_P2;Temp;Humidity;BMP_temperature;BMP_pressure;BME280_temperature;BME280_humidity;BME280_pressure;Samples;Min_cycle;Max_cycle;Signal;HPM_P1;HPM_P2
2022/12/09 00:00:37;;;;;;;19.63;17.55;;;;;;;6.92;78.53;94793.94;5014140;28;20206;-68
2022/12/09 00:03:04;;;;;;;19.98;17.75;;;;;;;6.89;78.49;94791.88;5014186;28;20203;-68
2022/12/09 00:05:31;;;;;;;17.92;16.17;;;;;;;6.90;79.02;94793.50;5014014;28;20191;-68
2022/12/09 00:07:58;;;;;;;17.88;16.08;;;;;;;6.92;79.16;94795.91;5013992;28;20538;-68
2022/12/09 00:10:24;;;;;;;14.85;13.45;;;;;;;6.92;78.86;94807.66;5014920;28;20187;-68
2022/12/09 00:12:55;;;;;;;16.52;14.82;;;;;;;6.95;78.79;94789.75;5018522;28;20206;-69
2022/12/09 00:15:22;;;;;;;17.35;15.60;;;;;;;6.96;78.79;94792.13;5018585;28;20198;-69
2022/12/09 00:17:49;;;;;;;16.10;14.50;;;;;;;6.95;78.94;94804.25;5018455;28;20219;-69
2022/12/09 00:20:17;;;;;;;16.63;15.02;;;;;;;6.94;79.17;94794.44;5017358;28;20203;-69
2022/12/09 00:22:44;;;;;;;17.25;15.45;;;;;;;6.93;79.34;94787.31;5018494;28;20592;-69
2022/12/09 00:25:10;;;;;;;22.42;20.00;;;;;;;6.92;79.15;94809.59;5017505;28;20265;-69
2022/12/09 00:27:37;;;;;;;19.58;17.58;;;;;;;6.83;79.12;94806.16;5020173;28;20187;-69
2022/12/09 00:30:07;;;;;;;18.85;16.88;;;;;;;6.84;79.87;94805.00;5021248;28;20203;-69
2022/12/09 00:32:34;;;;;;;24.48;21.02;;;;;;;6.79;79.70;94800.53;5037994;28;20265;-69
2022/12/09 00:35:03;;;;;;;26.50;23.38;;;;;;;6.77;79.36;94810.22;5038038;28;20187;-69
2022/12/09 00:37:30;;;;;;;34.13;26.30;;;;;;;6.73;79.60;94812.81;5037491;28;20260;-69
2022/12/09 00:39:57;;;;;;;29.27;25.35;;;;;;;6.67;79.56;94808.69;5037911;28;20186;-68
2022/12/09 00:42:24;;;;;;;29.45;24.77;;;;;;;6.67;79.27;94820.44;5020643;28;20198;-68
2022/12/09 00:44:51;;;;;;;26.20;23.20;;;;;;;6.69;79.82;94818.19;5037147;28;20205;-69
2022/12/09 00:47:21;;;;;;;24.88;22.17;;;;;;;6.74;79.94;94817.16;5020454;28;20206;-69
2022/12/09 00:49:47;;;;;;;25.77;22.92;;;;;;;6.75;79.93;94826.97;5019960;28;20194;-68
2022/12/09 00:52:15;;;;;;;21.65;19.30;;;;;;;6.78;80.22;94815.34;5037606;28;20217;-68
2022/12/09 00:54:42;;;;;;;18.38;16.50;;;;;;;6.84;79.67;94808.53;5037359;28;20189;-67
2022/12/09 00:57:08;;;;;;;19.38;17.25;;;;;;;6.88;79.85;94804.00;5037547;28;20183;-68
2022/12/09 00:59:35;;;;;;;15.90;14.38;;;;;;;6.94;79.16;94796.38;5037523;28;20210;-68
2022/12/09 01:02:03;;;;;;;15.73;14.23;;;;;;;6.97;79.32;94795.69;5037155;28;20197;-68
2022/12/09 01:04:31;;;;;;;15.68;13.93;;;;;;;6.98;79.46;94792.63;5020182;28;20210;-68
2022/12/09 01:06:57;;;;;;;16.88;15.23;;;;;;;7.01;79.56;94791.16;5037457;28;20240;-68
2022/12/09 01:09:24;;;;;;;16.55;14.88;;;;;;;7.02;79.28;94787.25;5019925;28;20202;-68
2022/12/09 01:11:52;;;;;;;15.07;13.65;;;;;;;6.96;79.51;94780.38;5037346;28;20206;-68
2022/12/09 01:14:18;;;;;;;16.80;15.10;;;;;;;6.91;79.33;94780.59;5037233;28;20614;-68
2022/12/09 01:16:45;;;;;;;18.13;16.33;;;;;;;6.83;78.99;94779.53;5037214;28;20194;-68
2022/12/09 01:19:13;;;;;;;17.30;15.60;;;;;;;6.70;79.11;94786.88;5019749;28;20675;-68
2022/12/09 01:21:41;;;;;;;17.23;15.45;;;;;;;6.70;79.44;94791.56;5036948;28;20201;-68
2022/12/09 01:24:10;;;;;;;15.45;13.85;;;;;;;6.73;79.79;94788.16;5019642;28;20206;-68
2022/12/09 01:26:37;;;;;;;16.25;14.65;;;;;;;6.74;79.57;94798.78;5019700;28;20206;-68
2022/12/09 01:29:04;;;;;;;18.10;16.30;;;;;;;6.77;79.66;94807.47;5032375;28;20230;-68
2022/12/09 01:31:49;;;;;;;16.67;14.98;;;;;;;6.79;79.93;94800.53;5016327;28;20191;-68
2022/12/09 01:34:16;;;;;;;19.30;16.75;;;;;;;6.79;79.74;94814.25;5017171;28;20195;-68
2022/12/09 01:36:46;;;;;;;18.75;16.75;;;;;;;6.78;79.83;94809.06;5016338;28;20195;-68
2022/12/09 01:39:13;;;;;;;19.42;16.73;;;;;;;6.76;79.86;94795.72;5015935;28;20215;-68
2022/12/09 01:41:40;;;;;;;17.45;15.63;;;;;;;6.79;80.21;94796.97;5016007;28;20217;-68
2022/12/09 01:44:17;;;;;;;18.10;16.30;;;;;;;6.81;80.56;94794.72;5032603;28;20577;-68
2022/12/09 01:46:44;;;;;;;18.85;16.92;;;;;;;6.81;80.19;94786.47;5016015;28;20199;-68
2022/12/09 01:49:16;;;;;;;18.33;16.45;;;;;;;6.79;80.23;94794.22;5015960;28;20206;-68
2022/12/09 01:51:46;;;;;;;18.90;17.00;;;;;;;6.79;80.24;94789.56;5015926;28;20203;-68
2022/12/09 01:54:13;;;;;;;17.77;15.98;;;;;;;6.76;80.27;94782.00;5015923;28;20536;-68
2022/12/09 01:56:41;;;;;;;18.23;16.33;;;;;;;6.76;80.49;94795.72;5015922;28;20210;-68
2022/12/09 01:59:10;;;;;;;20.83;17.52;;;;;;;6.72;79.83;94789.31;5015284;28;20227;-68
2022/12/09 02:01:39;;;;;;;21.60;18.45;;;;;;;6.64;79.48;94796.44;5015370;28;20203;-68
2022/12/09 02:04:06;;;;;;;24.63;21.95;;;;;;;6.57;79.49;94793.41;5015993;28;20211;-68
2022/12/09 02:06:33;;;;;;;22.73;20.38;;;;;;;6.56;79.87;94780.88;5015457;28;20187;-68
2022/12/09 02:09:01;;;;;;;24.00;21.50;;;;;;;6.55;79.62;94778.47;5015342;28;20206;-68
2022/12/09 02:11:38;;;;;;;22.67;19.98;;;;;;;6.54;79.39;94776.88;5015124;28;20635;-68
2022/12/09 02:14:08;;;;;;;21.42;19.17;;;;;;;6.55;79.59;94776.53;5032122;28;20210;-68
2022/12/09 02:16:37;;;;;;;21.10;18.58;;;;;;;6.55;79.37;94775.75;5015283;28;20198;-68
2022/12/09 02:19:12;;;;;;;21.75;19.05;;;;;;;6.51;79.50;94770.13;5015471;28;20227;-68
2022/12/09 02:21:43;;;;;;;21.13;18.60;;;;;;;6.49;80.13;94764.97;5015399;28;20536;-68
2022/12/09 02:24:14;;;;;;;22.10;18.73;;;;;;;6.49;80.13;94783.34;5015296;28;20203;-68
2022/12/09 02:26:44;;;;;;;23.85;20.38;;;;;;;6.46;80.01;94778.53;5015201;28;20206;-68
2022/12/09 02:29:44;;;;;;;23.77;20.63;;;;;;;6.41;79.67;94776.78;5014777;28;20250;-68
2022/12/09 02:32:33;;;;;;;23.38;20.88;;;;;;;6.37;79.35;94766.84;5015122;28;20199;-69
2022/12/09 02:35:06;;;;;;;19.90;17.85;;;;;;;6.38;79.80;94779.41;5031417;28;20630;-68
2022/12/09 02:37:38;;;;;;;18.30;16.40;;;;;;;6.36;79.85;94774.25;5015105;28;20214;-69
2022/12/09 02:40:08;;;;;;;18.45;16.45;;;;;;;6.39;80.00;94781.00;5015125;28;20210;-69
2022/12/09 02:42:35;;;;;;;17.33;15.57;;;;;;;6.42;80.09;94788.53;5015951;28;20187;-68
2022/12/09 02:45:04;;;;;;;16.98;15.23;;;;;;;6.48;80.45;94792.69;5015920;28;20198;-68
2022/12/09 02:47:33;;;;;;;20.35;17.38;;;;;;;6.56;80.43;94789.09;5015899;28;20313;-68
2022/12/09 02:50:06;;;;;;;19.02;17.10;;;;;;;6.61;80.39;94799.88;5016139;28;20195;-68
2022/12/09 02:52:34;;;;;;;17.83;15.93;;;;;;;6.64;80.05;94793.69;5014782;28;20207;-68
2022/12/09 02:55:02;;;;;;;17.10;15.38;;;;;;;6.68;79.61;94797.41;5014594;28;20206;-68
2022/12/09 02:57:30;;;;;;;17.75;15.07;;;;;;;6.72;79.82;94792.84;5014354;28;20651;-69
2022/12/09 02:59:57;;;;;;;16.25;14.65;;;;;;;6.77;79.80;94797.31;5014981;28;20608;-69
2022/12/09 03:02:27;;;;;;;16.02;14.45;;;;;;;6.79;80.04;94795.06;5014721;28;20195;-69
2022/12/09 03:05:03;;;;;;;17.08;15.27;;;;;;;6.81;79.85;94795.50;5014637;28;20206;-68
2022/12/09 03:07:37;;;;;;;17.05;15.45;;;;;;;6.76;79.73;94803.94;5014569;28;20205;-68
2022/12/09 03:10:08;;;;;;;18.80;16.83;;;;;;;6.69;79.51;94803.69;5014851;28;20198;-68
2022/12/09 03:12:35;;;;;;;24.88;22.23;;;;;;;6.63;79.63;94799.53;5014688;28;20538;-68
2022/12/09 03:15:04;;;;;;;24.48;21.85;;;;;;;6.60;79.69;94797.44;5014481;28;20207;-68
2022/12/09 03:17:33;;;;;;;25.02;21.75;;;;;;;6.59;79.89;94801.31;5014566;28;20210;-68
2022/12/09 03:20:05;;;;;;;21.10;18.70;;;;;;;6.61;79.97;94799.88;5014649;28;20226;-68
2022/12/09 03:22:35;;;;;;;16.42;14.82;;;;;;;6.65;80.15;94795.31;5014604;28;20198;-68
2022/12/09 03:25:05;;;;;;;18.67;16.83;;;;;;;6.69;80.25;94782.53;5015053;28;20207;-68
2022/12/09 03:27:34;;;;;;;19.15;17.25;;;;;;;6.73;80.55;94788.16;5015853;28;20186;-68
2022/12/09 03:30:02;;;;;;;17.08;15.40;;;;;;;6.67;80.36;94794.97;5035036;28;20221;-68
2022/12/09 03:32:31;;;;;;;19.48;15.20;;;;;;;6.65;80.49;94781.63;5034717;28;20240;-68
2022/12/09 03:35:00;;;;;;;16.35;14.57;;;;;;;6.65;80.63;94773.41;5034757;28;20213;-68
2022/12/09 03:37:29;;;;;;;15.57;14.07;;;;;;;6.58;80.42;94775.06;5017636;28;20194;-68
2022/12/09 03:39:58;;;;;;;16.65;14.02;;;;;;;6.55;80.41;94776.53;5017813;28;20225;-68
2022/12/09 03:42:31;;;;;;;15.57;14.07;;;;;;;6.59;80.21;94768.44;5017603;28;20190;-68
2022/12/09 03:45:00;;;;;;;14.73;13.40;;;;;;;6.63;80.51;94772.13;5017839;28;20194;-68
2022/12/09 03:47:27;;;;;;;15.68;14.18;;;;;;;6.62;80.18;94774.06;5020286;28;20198;-68
2022/12/09 03:49:54;;;;;;;16.27;14.70;;;;;;;6.60;80.03;94768.09;5021931;28;20190;-68
2022/12/09 03:52:23;;;;;;;15.95;14.35;;;;;;;6.63;80.75;94774.84;5021474;28;20637;-68
2022/12/09 03:54:55;;;;;;;15.57;14.07;;;;;;;6.62;80.05;94786.97;5038457;28;20220;-68
2022/12/09 03:57:24;;;;;;;15.45;13.95;;;;;;;6.65;80.18;94772.59;5038395;28;20179;-68
2022/12/09 03:59:54;;;;;;;14.30;12.80;;;;;;;6.67;80.22;94776.59;5038603;28;20210;-68
2022/12/09 04:02:21;;;;;;;14.82;13.43;;;;;;;6.67;80.35;94778.53;5021460;28;20206;-68
2022/12/09 04:04:48;;;;;;;14.90;13.35;;;;;;;6.68;80.17;94780.13;5021341;28;20615;-68
2022/12/09 04:07:15;;;;;;;14.90;13.43;;;;;;;6.70;79.84;94781.41;5021252;28;20224;-68
2022/12/09 04:09:41;;;;;;;14.68;13.27;;;;;;;6.71;80.05;94785.75;5038706;28;20183;-68
2022/12/09 04:12:10;;;;;;;15.10;13.65;;;;;;;6.68;80.18;94778.22;5038650;28;20191;-68
2022/12/09 04:14:37;;;;;;;14.38;13.05;;;;;;;6.72;80.53;94770.13;5038618;28;20288;-68
2022/12/09 04:17:04;;;;;;;14.82;13.32;;;;;;;6.71;80.20;94774.78;5038527;28;20182;-68
2022/12/09 04:19:31;;;;;;;13.98;12.63;;;;;;;6.67;80.19;94784.00;5020912;28;20234;-68
2022/12/09 04:21:58;;;;;;;15.00;13.60;;;;;;;6.69;80.76;94782.53;5038325;28;20197;-68
2022/12/09 04:24:25;;;;;;;14.88;13.38;;;;;;;6.72;80.50;94781.09;5021198;28;20217;-68
2022/12/09 04:26:52;;;;;;;15.10;13.50;;;;;;;6.71;80.33;94788.47;5037905;28;20197;-68
2022/12/09 04:29:20;;;;;;;14.65;13.05;;;;;;;6.74;80.24;94798.78;5016960;28;20230;-68
2022/12/09 04:31:47;;;;;;;15.43;13.10;;;;;;;6.74;80.22;94796.03;5017765;28;20219;-67
2022/12/09 04:34:14;;;;;;;15.07;13.23;;;;;;;6.69;80.78;94787.22;5017807;28;20221;-67
2022/12/09 04:36:41;;;;;;;14.50;13.00;;;;;;;6.73;80.70;94788.16;5033911;28;20202;-67
2022/12/09 04:39:08;;;;;;;15.93;14.25;;;;;;;6.70;80.69;94788.81;5018092;28;20211;-67
2022/12/09 04:41:35;;;;;;;17.63;15.18;;;;;;;6.70;80.67;94786.09;5017830;28;20540;-67
2022/12/09 04:44:02;;;;;;;15.45;13.90;;;;;;;6.68;80.70;94783.69;5017392;28;20247;-67
2022/12/09 04:46:31;;;;;;;17.05;15.30;;;;;;;6.64;80.58;94777.25;5017494;28;20196;-68
2022/12/09 04:48:57;;;;;;;16.23;14.52;;;;;;;6.65;80.81;94791.78;5018130;28;20188;-68
2022/12/09 04:51:24;;;;;;;17.75;15.48;;;;;;;6.60;80.68;94792.75;5017013;28;20195;-68
2022/12/09 04:53:51;;;;;;;16.75;14.95;;;;;;;6.61;80.17;94802.59;5016728;28;20203;-68
2022/12/09 04:56:19;;;;;;;15.48;13.93;;;;;;;6.62;80.51;94804.19;5017372;28;20204;-68
2022/12/09 04:58:46;;;;;;;16.60;14.80;;;;;;;6.62;80.45;94801.47;5017477;28;20187;-68
2022/12/09 05:01:16;;;;;;;17.60;15.82;;;;;;;6.57;80.16;94801.66;5033602;28;20191;-68
2022/12/09 05:03:47;;;;;;;17.20;15.40;;;;;;;6.57;80.07;94812.59;5017769;28;20188;-68
2022/12/09 05:06:14;;;;;;;19.17;16.08;;;;;;;6.57;80.42;94790.69;5017836;28;20199;-68
2022/12/09 05:08:41;;;;;;;18.60;16.58;;;;;;;6.61;80.36;94794.38;5017538;28;20269;-68
2022/12/09 05:11:10;;;;;;;17.40;15.68;;;;;;;6.61;80.27;94799.03;5017687;28;20206;-68
2022/12/09 05:13:37;;;;;;;18.10;16.23;;;;;;;6.57;80.26;94795.38;5016560;28;20195;-68
2022/12/09 05:16:06;;;;;;;19.42;16.13;;;;;;;6.52;80.42;94799.13;5016303;28;20604;-68
2022/12/09 05:18:33;;;;;;;18.00;15.93;;;;;;;6.52;80.43;94796.38;5017174;28;20612;-68
2022/12/09 05:21:04;;;;;;;48.50;43.90;;;;;;;6.52;80.38;94790.91;5017378;28;20207;-69
2022/12/09 05:23:31;;;;;;;24.20;21.90;;;;;;;6.52;80.66;94790.91;5017441;28;20190;-71
2022/12/09 05:25:58;;;;;;;19.98;18.17;;;;;;;6.53;80.57;94800.72;5017056;28;20198;-71
2022/12/09 05:28:26;;;;;;;21.63;19.50;;;;;;;6.52;80.39;94790.91;5025257;28;20226;-74
2022/12/09 05:30:54;;;;;;;20.30;18.27;;;;;;;6.53;80.16;94786.22;5019885;28;20257;-70
2022/12/09 05:33:22;;;;;;;22.60;20.50;;;;;;;6.53;80.40;94802.66;5018870;28;20203;-70
2022/12/09 05:35:50;;;;;;;18.80;17.02;;;;;;;6.51;80.74;94809.28;5037025;28;20540;-70
2022/12/09 05:38:19;;;;;;;19.05;17.25;;;;;;;6.54;80.44;94810.56;5036985;28;20202;-70
2022/12/09 05:40:46;;;;;;;19.20;17.40;;;;;;;6.57;80.63;94811.81;5019470;28;20657;-70
2022/12/09 05:43:13;;;;;;;17.65;15.88;;;;;;;6.61;80.48;94810.00;5019388;28;20194;-70
2022/12/09 05:45:40;;;;;;;20.40;18.63;;;;;;;6.64;80.50;94809.34;5036427;28;20202;-70
2022/12/09 05:48:08;;;;;;;19.73;17.95;;;;;;;6.60;80.31;94806.47;5036687;28;20183;-70
2022/12/09 05:50:35;;;;;;;19.67;17.88;;;;;;;6.52;80.24;94812.81;5036758;28;20244;-70
2022/12/09 05:53:02;;;;;;;19.13;17.27;;;;;;;6.51;80.34;94812.03;5018668;28;20635;-70
2022/12/09 05:55:30;;;;;;;20.45;18.35;;;;;;;6.54;80.39;94812.50;5035490;28;20195;-70
2022/12/09 05:57:57;;;;;;;19.40;17.60;;;;;;;6.56;80.57;94811.00;5036643;28;20198;-70
2022/12/09 06:00:25;;;;;;;19.65;17.80;;;;;;;6.52;80.25;94799.13;5036290;28;20203;-70
2022/12/09 06:02:51;;;;;;;28.73;26.33;;;;;;;6.54;80.41;94807.03;5036424;28;20191;-69
2022/12/09 06:05:18;;;;;;;35.03;31.92;;;;;;;6.53;80.81;94813.63;5018642;28;20209;-70
2022/12/09 06:07:45;;;;;;;39.70;36.10;;;;;;;6.57;80.27;94818.09;5019137;28;20206;-70
2022/12/09 06:10:12;;;;;;;40.28;36.67;;;;;;;6.58;80.13;94810.69;5035530;28;20179;-69
2022/12/09 06:12:41;;;;;;;38.05;34.72;;;;;;;6.60;80.50;94809.19;5036174;28;20190;-70
2022/12/09 06:15:09;;;;;;;39.20;35.80;;;;;;;6.57;80.44;94817.28;5036286;28;20273;-70
2022/12/09 06:17:36;;;;;;;26.38;24.08;;;;;;;6.60;80.28;94800.97;5034860;28;20206;-70
2022/12/09 06:20:03;;;;;;;28.85;26.17;;;;;;;6.63;80.65;94824.97;5035608;28;20207;-70
2022/12/09 06:22:30;;;;;;;29.98;27.17;;;;;;;6.67;80.60;94823.19;5002568;28;20209;-70
2022/12/09 06:24:58;;;;;;;28.77;25.98;;;;;;;6.71;81.09;94831.53;5036147;28;20186;-70
2022/12/09 06:27:25;;;;;;;41.72;30.75;;;;;;;6.78;81.33;94833.75;5035972;28;20239;-70
2022/12/09 06:29:53;;;;;;;38.75;35.22;;;;;;;6.77;80.67;94827.47;5018855;28;20281;-70
2022/12/09 06:32:20;;;;;;;37.38;33.75;;;;;;;6.78;80.75;94828.25;5018482;28;20199;-70
2022/12/09 06:34:47;;;;;;;45.30;41.00;;;;;;;6.76;80.69;94825.88;5018482;28;20205;-70
2022/12/09 06:37:15;;;;;;;82.25;74.63;;;;;;;6.73;81.01;94824.59;5035719;28;20186;-70
2022/12/09 06:39:42;;;;;;;82.20;74.47;;;;;;;6.75;80.69;94841.53;5018893;28;20268;-70
2022/12/09 06:42:09;;;;;;;74.25;67.35;;;;;;;6.77;80.80;94834.88;5018565;28;20202;-70
2022/12/09 06:44:38;;;;;;;77.45;70.35;;;;;;;6.79;80.93;94849.88;5035414;28;20199;-70
2022/12/09 06:47:06;;;;;;;70.13;63.10;;;;;;;6.80;81.34;94854.22;5035639;28;20280;-70
2022/12/09 06:49:33;;;;;;;55.05;49.63;;;;;;;6.86;81.09;94854.78;5018180;28;20205;-70
2022/12/09 06:52:00;;;;;;;53.88;48.67;;;;;;;6.90;80.76;94853.00;5035350;28;20206;-70
2022/12/09 06:54:28;;;;;;;57.65;52.05;;;;;;;6.92;80.72;94845.25;5035183;28;20206;-70
2022/12/09 06:56:55;;;;;;;53.40;48.25;;;;;;;6.89;80.14;94852.19;5018116;28;20244;-70
2022/12/09 06:59:22;;;;;;;50.72;45.70;;;;;;;6.85;80.42;94853.19;5034958;28;20186;-70
2022/12/09 07:01:49;;;;;;;46.28;41.65;;;;;;;6.88;80.34;94852.53;5035442;28;20190;-70
2022/12/09 07:04:18;;;;;;;45.28;41.15;;;;;;;6.90;80.64;94844.75;5018346;28;20205;-70
2022/12/09 07:06:47;;;;;;;39.63;35.75;;;;;;;6.89;80.44;94848.66;5017909;28;20186;-69
2022/12/09 07:09:15;;;;;;;39.10;35.30;;;;;;;6.84;80.28;94848.88;5034419;28;20206;-69
2022/12/09 07:11:44;;;;;;;37.75;33.95;;;;;;;6.85;80.27;94856.75;5017418;28;20221;-70
2022/12/09 07:14:12;;;;;;;37.13;33.70;;;;;;;6.88;80.20;94849.81;5017915;28;20256;-69
2022/12/09 07:16:39;;;;;;;39.92;36.20;;;;;;;6.94;80.45;94835.56;5017591;28;20204;-70
2022/12/09 07:19:07;;;;;;;40.08;36.20;;;;;;;6.98;80.13;94841.97;5017720;28;20607;-70
2022/12/09 07:21:35;;;;;;;40.47;36.50;;;;;;;7.03;80.46;94851.13;5017504;28;20206;-70
2022/12/09 07:24:03;;;;;;;42.42;38.22;;;;;;;7.07;80.53;94843.81;5018367;28;20194;-70
2022/12/09 07:26:31;;;;;;;44.45;40.25;;;;;;;7.07;80.45;94846.56;5035176;28;20197;-70
2022/12/09 07:28:58;;;;;;;41.58;37.28;;;;;;;7.11;80.76;94853.00;5033126;28;20715;-70
2022/12/09 07:31:27;;;;;;;41.70;37.78;;;;;;;7.14;80.32;94844.88;5017622;28;20186;-70
2022/12/09 07:33:56;;;;;;;40.05;36.28;;;;;;;7.18;80.72;94845.81;5034819;28;20178;-70
2022/12/09 07:36:25;;;;;;;40.15;36.40;;;;;;;7.24;80.70;94846.44;5035453;28;20194;-70
2022/12/09 07:38:56;;;;;;;34.67;31.38;;;;;;;7.29;80.68;94850.88;5035090;28;20194;-70
2022/12/09 07:41:23;;;;;;;36.85;33.33;;;;;;;7.31;80.25;94849.44;5034888;28;20268;-70
2022/12/09 07:43:50;;;;;;;35.10;31.65;;;;;;;7.33;80.51;94843.59;5034681;28;20198;-70
2022/12/09 07:46:18;;;;;;;37.95;34.25;;;;;;;7.38;80.68;94846.13;5034973;28;20189;-70
2022/12/09 07:48:45;;;;;;;35.55;32.22;;;;;;;7.38;81.09;94846.13;5017551;28;20207;-69
2022/12/09 07:51:12;;;;;;;34.25;30.95;;;;;;;7.43;81.16;94845.91;5034839;28;20175;-69
2022/12/09 07:53:40;;;;;;;30.98;27.65;;;;;;;7.47;81.11;94835.88;5017240;28;20213;-69
2022/12/09 07:56:13;;;;;;;27.92;25.13;;;;;;;7.51;80.99;94825.81;5034675;28;20235;-70
2022/12/09 07:58:40;;;;;;;29.98;26.90;;;;;;;7.53;81.46;94828.22;5017849;28;20233;-70
2022/12/09 08:01:08;;;;;;;28.58;25.63;;;;;;;7.59;81.65;94835.09;5034848;28;20320;-70
2022/12/09 08:03:36;;;;;;;27.75;25.05;;;;;;;7.62;81.11;94846.19;5034845;28;20187;-70
2022/12/09 08:06:03;;;;;;;28.88;25.50;;;;;;;7.69;81.11;94853.88;5017259;28;20203;-70
2022/12/09 08:08:31;;;;;;;28.00;25.40;;;;;;;7.72;81.19;94833.97;5034548;28;20661;-69
2022/12/09 08:11:06;;;;;;;26.98;24.02;;;;;;;7.77;80.78;94833.78;5034824;28;20198;-69
2022/12/09 08:13:35;;;;;;;28.40;25.48;;;;;;;7.83;80.55;94839.84;5034735;28;20182;-70
2022/12/09 08:16:03;;;;;;;28.67;25.83;;;;;;;7.87;80.28;94841.56;5017006;28;20198;-70
2022/12/09 08:18:30;;;;;;;26.95;23.92;;;;;;;7.92;80.32;94846.84;5034360;28;20194;-69
2022/12/09 08:20:58;;;;;;;27.55;24.75;;;;;;;7.98;80.10;94850.16;5017286;28;20215;-70
2022/12/09 08:23:27;;;;;;;27.25;24.55;;;;;;;8.08;80.48;94852.44;5017240;28;20194;-70
2022/12/09 08:25:54;;;;;;;27.45;24.75;;;;;;;8.19;80.60;94852.81;5017131;28;20289;-70
2022/12/09 08:28:21;;;;;;;27.25;24.48;;;;;;;8.26;80.55;94847.53;5013431;28;20238;-70
2022/12/09 08:30:50;;;;;;;28.23;25.25;;;;;;;8.40;80.71;94844.47;5014791;28;20253;-70
2022/12/09 08:33:17;;;;;;;28.60;25.75;;;;;;;8.53;80.76;94850.75;5017226;28;20191;-70
2022/12/09 08:35:44;;;;;;;28.38;25.38;;;;;;;8.65;80.44;94848.00;5018196;28;20203;-70
2022/12/09 08:38:11;;;;;;;27.30;23.25;;;;;;;8.71;79.59;94832.06;5033711;28;20564;-70
2022/12/09 08:40:38;;;;;;;27.13;24.30;;;;;;;8.75;79.42;94841.22;5017470;28;20310;-70
2022/12/09 08:43:07;;;;;;;27.90;25.02;;;;;;;8.74;79.68;94839.63;5017054;28;20207;-70
2022/12/09 08:45:35;;;;;;;30.48;23.77;;;;;;;8.76;79.49;94834.59;5016954;28;20211;-69
2022/12/09 08:48:04;;;;;;;27.45;24.65;;;;;;;8.78;79.40;94826.78;5018017;28;20187;-69
2022/12/09 08:50:33;;;;;;;33.35;27.17;;;;;;;8.79;79.31;94826.44;5017840;28;20627;-69
2022/12/09 08:53:00;;;;;;;31.23;25.35;;;;;;;8.87;79.23;94824.72;5018031;28;20261;-69
2022/12/09 08:55:29;;;;;;;31.08;24.15;;;;;;;8.95;78.92;94803.72;5018015;28;20194;-69
2022/12/09 08:57:57;;;;;;;29.40;24.23;;;;;;;9.02;77.68;94803.91;5016827;28;20207;-69
2022/12/09 09:00:25;;;;;;;26.95;22.58;;;;;;;9.11;77.41;94802.63;5016850;28;20666;-69
2022/12/09 09:02:52;;;;;;;23.27;20.02;;;;;;;9.25;77.13;94784.91;5017613;28;20199;-69
2022/12/09 09:05:20;;;;;;;22.80;20.25;;;;;;;9.29;76.00;94775.56;5016829;28;20203;-69
2022/12/09 09:07:47;;;;;;;24.65;20.65;;;;;;;9.44;75.97;94776.78;5016808;28;20206;-69
2022/12/09 09:10:14;;;;;;;25.45;21.48;;;;;;;9.58;75.80;94770.84;5017734;28;20253;-69
2022/12/09 09:12:41;;;;;;;26.83;20.17;;;;;;;9.69;75.51;94771.91;5016379;28;20658;-70
2022/12/09 09:15:09;;;;;;;26.10;22.90;;;;;;;9.80;75.28;94767.50;5016501;28;20214;-69
2022/12/09 09:17:36;;;;;;;26.13;20.50;;;;;;;9.86;75.55;94774.31;5016280;28;20202;-69
2022/12/09 09:20:02;;;;;;;22.58;17.08;;;;;;;9.89;74.52;94781.09;5016476;28;20202;-69
2022/12/09 09:22:31;;;;;;;22.63;15.70;;;;;;;9.91;73.73;94767.75;5017464;28;20194;-70
2022/12/09 09:24:58;;;;;;;19.63;15.65;;;;;;;9.99;73.93;94757.72;5033119;28;20522;-69
2022/12/09 09:27:25;;;;;;;23.25;15.45;;;;;;;10.08;73.66;94756.34;5016390;28;20203;-69
2022/12/09 09:29:51;;;;;;;22.83;17.05;;;;;;;10.18;73.43;94744.00;5032318;28;20242;-69
2022/12/09 09:32:18;;;;;;;20.80;17.05;;;;;;;10.42;73.04;94742.19;5015957;28;20640;-69
2022/12/09 09:34:49;;;;;;;27.08;18.83;;;;;;;10.53;72.12;94740.47;5032713;28;20195;-69
2022/12/09 09:37:16;;;;;;;28.90;22.75;;;;;;;10.67;71.70;94732.50;5032627;28;20210;-69
2022/12/09 09:39:44;;;;;;;28.90;24.63;;;;;;;10.77;70.82;94718.13;5016162;28;20195;-69
2022/12/09 09:42:14;;;;;;;26.13;22.83;;;;;;;10.94;71.55;94716.13;5016028;28;20215;-69
2022/12/09 09:44:44;;;;;;;29.25;21.60;;;;;;;11.09;70.49;94710.50;5015954;28;20191;-69
2022/12/09 09:47:15;;;;;;;24.70;15.93;;;;;;;11.40;70.23;94718.94;5016162;28;20207;-70
2022/12/09 09:49:44;;;;;;;28.60;15.85;;;;;;;11.69;67.47;94718.31;5015725;28;20636;-69
2022/12/09 09:52:15;;;;;;;23.92;16.30;;;;;;;11.65;66.63;94711.91;5016037;28;20198;-69
2022/12/09 09:54:43;;;;;;;24.25;15.75;;;;;;;11.86;67.04;94719.78;5015483;28;20200;-69
2022/12/09 09:57:14;;;;;;;20.35;14.02;;;;;;;12.05;66.54;94707.84;5016079;28;20195;-69
2022/12/09 09:59:52;;;;;;;19.58;15.85;;;;;;;12.17;65.64;94688.31;5015408;28;20206;-69
2022/12/09 10:02:23;;;;;;;24.23;15.27;;;;;;;12.38;65.28;94676.78;5015530;28;20326;-69
2022/12/09 10:04:59;;;;;;;28.33;18.85;;;;;;;12.34;64.93;94673.13;5016738;28;20183;-69
2022/12/09 10:07:31;;;;;;;29.75;20.00;;;;;;;12.24;64.07;94669.06;5015640;28;20198;-69
2022/12/09 10:10:06;;;;;;;26.77;19.55;;;;;;;11.89;63.71;94651.94;5016565;28;20187;-69
2022/12/09 10:12:40;;;;;;;23.27;18.80;;;;;;;11.61;64.75;94663.31;5016088;28;20210;-69
2022/12/09 10:15:12;;;;;;;29.23;18.70;;;;;;;11.61;65.43;94660.53;5032167;28;20214;-69
2022/12/09 10:17:44;;;;;;;27.25;20.55;;;;;;;11.55;65.54;94663.63;5015571;28;20187;-69
2022/12/09 10:20:13;;;;;;;38.30;32.63;;;;;;;11.42;66.22;94650.38;5015513;28;20183;-69
2022/12/09 10:22:44;;;;;;;37.92;30.52;;;;;;;11.28;66.92;94653.66;5015300;28;20195;-69
2022/12/09 10:25:18;;;;;;;35.28;26.70;;;;;;;11.18;67.39;94646.78;5015673;28;20202;-69
2022/12/09 10:27:49;;;;;;;29.63;22.95;;;;;;;11.02;67.53;94648.88;5017033;28;20615;-69
2022/12/09 10:30:17;;;;;;;33.40;23.38;;;;;;;10.98;67.45;94646.03;5019014;28;20198;-69
2022/12/09 10:32:45;;;;;;;28.85;22.77;;;;;;;11.00;67.52;94635.44;5018972;28;20198;-69
2022/12/09 10:35:14;;;;;;;30.27;22.15;;;;;;;11.02;67.86;94629.53;5035905;28;20273;-69
2022/12/09 10:37:41;;;;;;;31.40;21.42;;;;;;;11.05;68.00;94628.81;5018131;28;20656;-69
2022/12/09 10:40:21;;;;;;;28.85;21.35;;;;;;;11.06;68.22;94625.69;5018641;28;20194;-69
2022/12/09 10:45:34;;;;;;;28.15;20.35;;;;;;;11.00;67.91;94626.34;5017968;28;20290;-69
2022/12/09 10:48:02;;;;;;;26.48;18.92;;;;;;;10.98;67.43;94615.69;5017891;28;20209;-69
2022/12/09 10:50:32;;;;;;;27.27;19.48;;;;;;;11.00;67.82;94621.66;5018222;28;20232;-69
2022/12/09 10:53:04;;;;;;;32.15;20.98;;;;;;;10.97;67.49;94624.34;5018339;28;20260;-69
2022/12/09 10:55:36;;;;;;;29.33;19.70;;;;;;;10.94;67.63;94617.59;5017694;28;20202;-69
2022/12/09 10:58:21;;;;;;;26.45;20.13;;;;;;;10.94;67.57;94614.03;5035389;28;20195;-69
2022/12/09 11:01:07;;;;;;;23.08;17.70;;;;;;;10.89;67.62;94609.59;5018459;28;20229;-69
2022/12/09 11:03:35;;;;;;;27.13;17.85;;;;;;;10.87;67.56;94611.94;5017855;28;20202;-69
2022/12/09 11:06:11;;;;;;;31.33;21.38;;;;;;;10.89;68.01;94603.28;5034432;28;20533;-69
2022/12/09 11:08:40;;;;;;;31.88;21.00;;;;;;;10.82;68.24;94603.94;5034917;28;20186;-69
2022/12/09 11:11:09;;;;;;;30.90;21.30;;;;;;;10.83;68.58;94589.78;5018105;28;20201;-69
2022/12/09 11:13:42;;;;;;;30.92;20.85;;;;;;;10.88;68.43;94591.44;5017999;28;20210;-69
2022/12/09 11:16:10;;;;;;;29.95;20.55;;;;;;;10.91;68.17;94600.97;5017518;28;20198;-69
2022/12/09 11:18:42;;;;;;;29.92;21.52;;;;;;;10.88;68.30;94602.47;5017935;28;20202;-69
2022/12/09 11:21:32;;;;;;;26.73;18.58;;;;;;;10.87;67.19;94587.09;5017959;28;20214;-70
2022/12/09 11:23:59;;;;;;;24.42;16.40;;;;;;;10.98;67.30;94584.53;5035101;28;20202;-70
2022/12/09 11:26:35;;;;;;;28.92;18.27;;;;;;;11.29;67.56;94598.09;5035312;28;20186;-70
2022/12/09 11:29:05;;;;;;;27.98;19.83;;;;;;;11.60;66.86;94589.91;5034757;28;20234;-69
2022/12/09 11:31:33;;;;;;;27.25;17.63;;;;;;;11.75;65.66;94580.66;5017739;28;20194;-69
2022/12/09 11:34:03;;;;;;;22.88;14.45;;;;;;;11.70;65.16;94575.47;5034940;28;20210;-69